This is the latest recevied weather packets stored in our database for station/object VA3JLF-1. If no packets are shown the sender has not sent any weather packets the latest 10 day(s).
| Time | Temp. | Humidity | Pressure | Rain* | Wind** | Luminosity | Snow |
|---|---|---|---|---|---|---|---|
| 1777652159 | 10° C | 52% | 1009.6 hPa | 0 mm | - | - | - |
| 1777651559 | 10° C | 54% | 1009.6 hPa | 0 mm | - | - | - |
| 1777650959 | 8.89° C | 56% | 1009.6 hPa | 0 mm | - | - | - |
| 1777650359 | 9.44° C | 55% | 1009.7 hPa | 0 mm | - | - | - |
| 1777649761 | 9.44° C | 56% | 1010.1 hPa | 0 mm | - | - | - |
| 1777647360 | 10° C | 53% | 1010 hPa | 0 mm | - | - | - |
| 1777646760 | 9.44° C | 53% | 1010 hPa | 0 mm | - | - | - |
| 1777646160 | 8.89° C | 54% | 1010 hPa | 0 mm | - | - | - |
| 1777644959 | 9.44° C | 54% | 1009.8 hPa | 0 mm | - | - | - |
| 1777644359 | 10° C | 52% | 1010 hPa | 0 mm | - | - | - |
| 1777643759 | 9.44° C | 50% | 1009.9 hPa | 0 mm | - | - | - |
| 1777643159 | 10° C | 54% | 1010 hPa | 0 mm | - | - | - |
| 1777642559 | 10° C | 57% | 1009.9 hPa | 0 mm | - | - | - |
| 1777641959 | 8.33° C | 60% | 1009.9 hPa | 0 mm | - | - | - |
| 1777641359 | 8.89° C | 58% | 1010.1 hPa | 0 mm | - | - | - |
| 1777640760 | 9.44° C | 58% | 1010.2 hPa | 0 mm | - | - | - |
| 1777640159 | 8.33° C | 59% | 1010 hPa | 0 mm | - | - | - |
| 1777639559 | 9.44° C | 56% | 1010.2 hPa | 0 mm | - | - | - |
| 1777638959 | 7.78° C | 65% | 1010.4 hPa | 0 mm | - | - | - |
| 1777638358 | 7.78° C | 66% | 1010.2 hPa | 0 mm | - | - | - |
| 1777637758 | 6.67° C | 69% | 1010.4 hPa | 0 mm | - | - | - |
| 1777637158 | 6.67° C | 73% | 1010.4 hPa | 0 mm | - | - | - |
| 1777636558 | 5.56° C | 77% | 1010.4 hPa | 0 mm | - | - | - |
| 1777635958 | 5° C | 78% | 1010.5 hPa | 0 mm | - | - | - |
| 1777635358 | 3.89° C | 85% | 1010.3 hPa | 0 mm | - | - | - |
* Rain latest hour (hover to see other rain measurements)
** Current wind speed in m/s (hover to see current wind gust speed)